Archival Weather

Chicago O'Hare International

Chicago, Illinois (KORD)

Report from: Wednesday, September 6, 2023 5:19 AM CDT
Current time: Wednesday, May 29, 2024 6:59 PM CDT

Current weather – Weather history – Daily summaries
Weather forecast

Present weatherThunderstorm
Temperature22.8°C (73.0°F)
Dew point20.6°C (69.1°F)
Winds 12 kts (6.2 m/s, 13.8 mph) Southwest (220°)
Wind gusts 16 kts (8.2 m/s, 18.4 mph)
Visibility7 mi. (11.3 km)
Clouds Scattered clouds with cumulonimbus 1,200 ft. (366 m)
Ceiling: Broken clouds 3,800 ft. (1,158 m)
Overcast 12,000 ft. (3,658 m)
Altimeter29.74 in.Hg (1007 mB)
Precipitiation0.04 in. (1 mm)
Precip. events Rain ended 10:19 AM
Relative humidity87 %
Density altitude1,443 ft. (440 m)
Remarks Automated weather observing station with precipitation discriminator
Lightning observed
Lightning observed: intra cloud, cloud to ground
Distant occasional east thunderstorm east moving northeast
Flight conditions Visual Meteorological Conditions
Raw dataKORD 061019Z 22012G16KT 7SM TS SCT012CB BKN038 OVC120 23/21 A2974 RMK AO2 LTG DSNT ALQDS RAE19 OCNL LTGICCG E TS E MOV NE P0004 T02280206
An error has occurred. This application may no longer respond until reloaded. Reload 🗙